Time;durP1;ratioP1;P1;durP2;ratioP2;P2;SDS_P1;SDS_P2;PMS_P1;PMS_P2;Temp;Humidity;BMP_temperature;BMP_pressure;BME280_temperature;BME280_humidity;BME280_pressure;Samples;Min_cycle;Max_cycle;Signal;HPM_P1;HPM_P2
2023/03/05 00:02:13;;;;;;;5.67;1.90;;;5.10;43.10;;;;;;4858449;29;20218;-63
2023/03/05 00:04:40;;;;;;;3.73;2.10;;;5.10;43.20;;;;;;4874857;29;20233;-62
2023/03/05 00:07:11;;;;;;;3.10;1.60;;;5.10;43.20;;;;;;4871170;29;20207;-62
2023/03/05 00:09:38;;;;;;;3.47;1.70;;;5.10;43.20;;;;;;4877088;29;20593;-64
2023/03/05 00:12:07;;;;;;;1.90;1.63;;;5.10;43.20;;;;;;4876956;29;20230;-63
2023/03/05 00:14:34;;;;;;;2.13;1.67;;;5.10;43.40;;;;;;4877945;29;20200;-62
2023/03/05 00:17:01;;;;;;;2.07;1.50;;;5.10;43.50;;;;;;4860542;29;20203;-63
2023/03/05 00:19:28;;;;;;;3.73;2.10;;;5.10;43.40;;;;;;4878461;29;20302;-63
2023/03/05 00:21:55;;;;;;;4.40;1.83;;;5.10;43.60;;;;;;4878583;29;20214;-63
2023/03/05 00:24:22;;;;;;;3.37;1.83;;;5.10;43.40;;;;;;4878247;29;20204;-62
2023/03/05 00:26:52;;;;;;;4.30;1.83;;;5.10;43.60;;;;;;4876947;29;20248;-63
2023/03/05 00:29:21;;;;;;;2.53;1.73;;;5.10;43.70;;;;;;4861608;29;20219;-63
2023/03/05 00:31:48;;;;;;;3.17;1.43;;;5.10;43.60;;;;;;4876087;29;20276;-63
2023/03/05 00:34:18;;;;;;;5.77;1.93;;;5.10;43.50;;;;;;4857222;29;20208;-62
2023/03/05 00:36:48;;;;;;;3.93;1.97;;;5.20;43.60;;;;;;4876549;29;20207;-62
2023/03/05 00:39:16;;;;;;;2.63;1.60;;;5.10;43.60;;;;;;4875904;29;20247;-62
2023/03/05 00:41:43;;;;;;;2.00;1.63;;;5.10;43.60;;;;;;4881249;29;20211;-63
2023/03/05 00:44:10;;;;;;;2.70;1.60;;;5.20;43.60;;;;;;4877945;29;20196;-64
2023/03/05 00:46:40;;;;;;;2.73;1.87;;;5.20;43.50;;;;;;4878078;29;20216;-62
2023/03/05 00:49:07;;;;;;;2.50;1.90;;;5.20;43.60;;;;;;4881268;29;20573;-63
2023/03/05 00:51:35;;;;;;;3.00;2.00;;;5.10;43.70;;;;;;4877883;29;20233;-62
2023/03/05 00:54:02;;;;;;;5.03;1.97;;;5.10;43.70;;;;;;4860115;29;20234;-64
2023/03/05 00:56:29;;;;;;;5.13;1.97;;;5.00;43.70;;;;;;4878769;29;20223;-63
2023/03/05 00:58:57;;;;;;;2.77;1.63;;;4.90;43.80;;;;;;4877934;29;20200;-62
2023/03/05 01:01:25;;;;;;;4.07;1.93;;;4.90;44.10;;;;;;4869964;29;20210;-62
2023/03/05 01:03:55;;;;;;;2.23;1.57;;;4.80;44.20;;;;;;4876792;29;20217;-62
2023/03/05 01:06:22;;;;;;;3.63;1.60;;;4.80;44.40;;;;;;4861229;29;20203;-62
2023/03/05 01:08:49;;;;;;;1.27;1.13;;;4.80;44.60;;;;;;4877141;29;20264;-63
2023/03/05 01:11:16;;;;;;;2.07;1.57;;;4.80;44.80;;;;;;4860022;29;20199;-62
2023/03/05 01:13:43;;;;;;;2.63;1.40;;;4.80;44.90;;;;;;4876986;29;20203;-63
2023/03/05 01:16:11;;;;;;;1.73;1.20;;;4.80;45.10;;;;;;4877433;29;20211;-63
2023/03/05 01:18:39;;;;;;;2.07;1.10;;;4.80;45.50;;;;;;4878129;29;20210;-63
2023/03/05 01:21:08;;;;;;;2.40;1.40;;;4.80;45.50;;;;;;4877423;29;20227;-63
2023/03/05 01:23:36;;;;;;;2.40;1.73;;;4.80;46.00;;;;;;4859315;29;20211;-63
2023/03/05 01:26:04;;;;;;;1.30;1.10;;;4.80;46.30;;;;;;4859469;29;20207;-63
2023/03/05 01:28:31;;;;;;;3.37;1.70;;;4.80;46.40;;;;;;4880880;29;20200;-62
2023/03/05 01:30:58;;;;;;;1.93;1.23;;;4.80;46.90;;;;;;4877210;29;20272;-62
2023/03/05 01:33:25;;;;;;;2.87;1.60;;;4.80;47.90;;;;;;4875717;29;20208;-62
2023/03/05 01:35:52;;;;;;;2.87;1.30;;;4.70;47.30;;;;;;4877126;29;20256;-62
2023/03/05 01:38:21;;;;;;;2.63;1.63;;;4.80;47.20;;;;;;4876898;29;20268;-62
2023/03/05 01:40:48;;;;;;;1.67;1.27;;;4.80;47.20;;;;;;4875715;29;20208;-62
2023/03/05 01:43:25;;;;;;;1.43;1.20;;;4.80;47.30;;;;;;4877217;29;20215;-62
2023/03/05 01:46:25;;;;;;;3.40;1.63;;;4.80;47.60;;;;;;4876882;29;20222;-62
2023/03/05 01:48:56;;;;;;;1.43;1.23;;;4.80;47.70;;;;;;4876996;29;20236;-63
2023/03/05 01:51:26;;;;;;;1.77;1.10;;;4.80;47.70;;;;;;4876534;29;20203;-62
2023/03/05 01:53:57;;;;;;;3.17;1.17;;;4.80;47.70;;;;;;4875635;29;20715;-62
2023/03/05 01:56:26;;;;;;;1.90;1.10;;;4.80;47.80;;;;;;4879785;29;20275;-62
2023/03/05 01:58:56;;;;;;;1.83;1.10;;;4.80;48.00;;;;;;4858877;29;20208;-61
2023/03/05 02:01:23;;;;;;;2.43;1.33;;;4.80;48.20;;;;;;4876124;29;20235;-62
2023/03/05 02:03:51;;;;;;;3.77;1.40;;;4.80;48.30;;;;;;4875844;29;20580;-62
2023/03/05 02:06:18;;;;;;;3.27;1.20;;;4.80;48.50;;;;;;4876205;29;20669;-62
2023/03/05 02:08:45;;;;;;;1.60;1.40;;;4.90;48.60;;;;;;4855382;29;20208;-62
2023/03/05 02:11:14;;;;;;;2.00;1.00;;;4.90;48.80;;;;;;4872534;29;20204;-61
2023/03/05 02:13:41;;;;;;;3.30;1.73;;;4.90;48.90;;;;;;4859210;29;20660;-62
2023/03/05 02:16:08;;;;;;;2.17;1.10;;;4.90;49.30;;;;;;4876185;29;20211;-62
2023/03/05 02:18:35;;;;;;;1.53;0.97;;;4.90;49.40;;;;;;4875765;29;20299;-63
2023/03/05 02:21:05;;;;;;;2.07;1.10;;;4.80;49.60;;;;;;4876366;29;20395;-63
2023/03/05 02:23:35;;;;;;;1.50;1.40;;;4.80;49.70;;;;;;4859341;29;20195;-63
2023/03/05 02:26:03;;;;;;;2.97;1.83;;;4.80;50.00;;;;;;4875122;29;20207;-62
2023/03/05 02:28:33;;;;;;;2.83;1.50;;;4.70;50.70;;;;;;4876215;29;20683;-61
2023/03/05 02:31:00;;;;;;;4.80;2.00;;;4.70;50.10;;;;;;4876096;29;20203;-62
2023/03/05 02:33:28;;;;;;;5.47;1.80;;;4.70;50.60;;;;;;4876153;29;20218;-62
2023/03/05 02:35:55;;;;;;;2.73;1.47;;;4.70;50.80;;;;;;4875101;29;20195;-63
2023/03/05 02:38:23;;;;;;;3.63;1.70;;;4.60;50.80;;;;;;4876287;29;20596;-62
2023/03/05 02:40:51;;;;;;;3.13;1.70;;;4.60;51.00;;;;;;4873716;29;20219;-62
2023/03/05 02:43:19;;;;;;;3.77;1.90;;;4.60;51.10;;;;;;4859342;29;20295;-62
2023/03/05 02:45:46;;;;;;;3.00;1.33;;;4.60;51.60;;;;;;4875882;29;20203;-62
2023/03/05 02:48:13;;;;;;;2.17;1.20;;;4.60;51.80;;;;;;4876002;29;20286;-62
2023/03/05 02:50:41;;;;;;;4.47;1.47;;;4.60;51.80;;;;;;4859397;29;20207;-61
2023/03/05 02:53:09;;;;;;;3.47;1.57;;;4.60;51.80;;;;;;4856247;29;20308;-63
2023/03/05 02:55:38;;;;;;;3.70;1.60;;;4.60;52.60;;;;;;4865973;29;20216;-63
2023/03/05 02:58:06;;;;;;;4.53;1.67;;;4.60;52.00;;;;;;4875940;29;20183;-63
2023/03/05 03:00:33;;;;;;;2.80;1.60;;;4.50;52.20;;;;;;4875584;29;20271;-63
2023/03/05 03:03:00;;;;;;;3.87;1.53;;;4.50;52.40;;;;;;4876151;29;20754;-63
2023/03/05 03:05:27;;;;;;;5.83;1.60;;;4.50;52.70;;;;;;4877714;29;20218;-62
2023/03/05 03:07:55;;;;;;;1.70;1.43;;;4.40;52.70;;;;;;4878854;29;20201;-62
2023/03/05 03:10:22;;;;;;;1.47;1.30;;;4.40;53.10;;;;;;4861014;29;20215;-62
2023/03/05 03:12:50;;;;;;;3.47;1.53;;;4.40;53.10;;;;;;4879667;29;20208;-62
2023/03/05 03:15:18;;;;;;;1.30;1.20;;;4.40;53.20;;;;;;4873994;29;20672;-61
2023/03/05 03:17:46;;;;;;;2.73;1.30;;;4.40;53.80;;;;;;4879967;29;20196;-62
2023/03/05 03:20:15;;;;;;;2.93;1.17;;;4.40;53.20;;;;;;4878620;29;20576;-62
2023/03/05 03:22:44;;;;;;;2.60;1.43;;;4.40;53.20;;;;;;4879388;29;20259;-62
2023/03/05 03:25:13;;;;;;;1.20;1.10;;;4.40;53.30;;;;;;4877588;29;20664;-62
2023/03/05 03:27:40;;;;;;;3.60;1.60;;;4.40;53.30;;;;;;4879279;29;20259;-63
2023/03/05 03:30:10;;;;;;;2.13;1.43;;;4.40;53.60;;;;;;4874704;29;20276;-62
2023/03/05 03:32:38;;;;;;;3.33;1.57;;;4.40;53.60;;;;;;4879758;29;20210;-62
2023/03/05 03:35:06;;;;;;;2.17;1.23;;;4.30;53.50;;;;;;4879000;29;20286;-63
2023/03/05 03:37:33;;;;;;;5.53;2.10;;;4.30;53.60;;;;;;4877596;29;20204;-63
2023/03/05 03:40:00;;;;;;;3.70;1.40;;;4.30;53.80;;;;;;4874369;29;20228;-63
2023/03/05 03:42:27;;;;;;;6.40;1.70;;;4.30;53.70;;;;;;4878934;29;20206;-62
2023/03/05 03:44:54;;;;;;;3.43;1.10;;;4.30;53.70;;;;;;4879069;29;20681;-62
2023/03/05 03:47:23;;;;;;;1.47;1.10;;;3.40;53.80;;;;;;4879514;29;20263;-62
2023/03/05 03:49:53;;;;;;;2.83;1.30;;;4.30;55.20;;;;;;4878558;29;20199;-62
2023/03/05 03:52:21;;;;;;;2.43;1.10;;;4.30;57.30;;;;;;4879227;29;20234;-62
2023/03/05 03:54:49;;;;;;;1.93;1.00;;;4.30;57.70;;;;;;4878019;29;20199;-62
2023/03/05 03:57:16;;;;;;;2.93;1.10;;;4.30;58.50;;;;;;4877067;29;20311;-63
2023/03/05 03:59:44;;;;;;;2.37;1.07;;;4.20;58.90;;;;;;4877736;29;20285;-62
2023/03/05 04:02:11;;;;;;;1.03;0.87;;;4.40;59.30;;;;;;4878595;29;20216;-62
2023/03/05 04:04:40;;;;;;;1.53;1.23;;;4.20;59.30;;;;;;4876977;29;20207;-63
2023/03/05 04:07:07;;;;;;;1.40;1.00;;;4.20;59.20;;;;;;4877068;29;20575;-62
2023/03/05 04:09:34;;;;;;;3.10;1.20;;;4.30;59.50;;;;;;4876151;29;20211;-62
2023/03/05 04:12:01;;;;;;;1.13;0.80;;;4.30;59.40;;;;;;4876553;29;20260;-62
2023/03/05 04:14:28;;;;;;;1.10;0.97;;;4.30;59.50;;;;;;4877470;29;20220;-62
2023/03/05 04:16:56;;;;;;;1.80;1.10;;;4.20;59.60;;;;;;4878371;29;20215;-63
2023/03/05 04:19:23;;;;;;;1.47;1.00;;;4.20;59.70;;;;;;4872588;29;20501;-62
2023/03/05 04:21:51;;;;;;;2.00;1.20;;;4.20;60.40;;;;;;4876807;29;20243;-61
2023/03/05 04:24:18;;;;;;;2.10;1.30;;;4.20;60.50;;;;;;4877974;29;20226;-62
2023/03/05 04:26:45;;;;;;;2.00;1.30;;;4.20;60.50;;;;;;4876402;29;20237;-62
2023/03/05 04:29:13;;;;;;;1.80;1.20;;;4.20;60.60;;;;;;4876581;29;20208;-63
2023/03/05 04:31:40;;;;;;;2.33;1.20;;;4.10;60.50;;;;;;4877409;29;20215;-63
2023/03/05 04:34:07;;;;;;;3.47;1.10;;;4.20;60.80;;;;;;4877484;29;20296;-63
2023/03/05 04:36:35;;;;;;;3.07;1.80;;;4.10;61.80;;;;;;4877770;29;20195;-63
2023/03/05 04:39:04;;;;;;;3.50;1.23;;;4.10;62.20;;;;;;4877188;29;20243;-63
2023/03/05 04:41:31;;;;;;;3.93;1.43;;;4.00;62.20;;;;;;4876705;29;20227;-63
2023/03/05 04:43:58;;;;;;;1.67;1.20;;;4.00;62.40;;;;;;4876272;29;20200;-63
2023/03/05 04:46:26;;;;;;;2.60;1.23;;;4.00;62.80;;;;;;4877703;29;20204;-63
2023/03/05 04:48:53;;;;;;;3.40;1.20;;;4.00;62.70;;;;;;4876060;29;20632;-62
2023/03/05 04:51:20;;;;;;;2.67;0.90;;;4.00;62.60;;;;;;4871451;29;20275;-61
2023/03/05 04:53:47;;;;;;;1.30;1.10;;;4.10;62.50;;;;;;4867302;29;20283;-62
2023/03/05 04:56:16;;;;;;;3.53;1.10;;;4.10;63.20;;;;;;4876828;29;20207;-61
2023/03/05 04:58:43;;;;;;;2.60;1.00;;;4.10;62.40;;;;;;4877566;29;20195;-62
2023/03/05 05:01:10;;;;;;;2.03;1.10;;;4.10;62.40;;;;;;4878522;29;20268;-62
2023/03/05 05:03:37;;;;;;;2.30;1.00;;;4.10;62.40;;;;;;4877263;29;20700;-62
2023/03/05 05:06:05;;;;;;;1.90;1.10;;;4.10;62.40;;;;;;4877845;29;20200;-62
2023/03/05 05:08:32;;;;;;;1.43;1.13;;;4.10;62.40;;;;;;4874838;29;20215;-62
2023/03/05 05:11:01;;;;;;;1.50;1.00;;;4.10;62.60;;;;;;4876722;29;20199;-61
2023/03/05 05:13:30;;;;;;;0.67;0.67;;;4.10;62.50;;;;;;4870242;29;20195;-62
2023/03/05 05:15:57;;;;;;;2.90;1.20;;;4.00;62.40;;;;;;4877327;29;20552;-62
2023/03/05 05:18:25;;;;;;;2.20;1.23;;;4.00;62.20;;;;;;4878000;29;20207;-63
2023/03/05 05:20:52;;;;;;;0.90;0.77;;;4.00;62.20;;;;;;4876715;29;20223;-63
2023/03/05 05:23:19;;;;;;;1.10;0.80;;;4.00;62.30;;;;;;4877741;29;20199;-63
2023/03/05 05:25:46;;;;;;;2.17;1.10;;;4.00;62.10;;;;;;4874571;29;20211;-62
2023/03/05 05:28:13;;;;;;;1.43;0.83;;;4.00;62.10;;;;;;4877462;29;20195;-63
2023/03/05 05:30:42;;;;;;;2.30;0.97;;;4.10;62.00;;;;;;4860046;29;20207;-63
2023/03/05 05:33:09;;;;;;;2.33;1.07;;;4.10;61.90;;;;;;4871029;29;20201;-63
2023/03/05 05:35:39;;;;;;;1.50;1.20;;;4.10;61.90;;;;;;4876237;29;20211;-62
2023/03/05 05:38:06;;;;;;;2.00;0.90;;;5.90;63.60;;;;;;4860160;29;20212;-62
2023/03/05 05:40:33;;;;;;;1.30;1.00;;;4.10;61.70;;;;;;4883312;29;20196;-62
2023/03/05 05:43:00;;;;;;;1.67;1.10;;;4.10;61.60;;;;;;4874980;29;20200;-62
2023/03/05 05:45:27;;;;;;;1.27;1.00;;;4.10;61.50;;;;;;4875723;29;20199;-63
2023/03/05 05:47:56;;;;;;;2.60;1.10;;;4.10;61.40;;;;;;4874466;29;20311;-63
2023/03/05 05:50:24;;;;;;;2.00;1.00;;;4.10;61.50;;;;;;4877207;29;20192;-63
2023/03/05 05:52:51;;;;;;;1.63;1.20;;;4.00;61.20;;;;;;4877230;29;20214;-63
2023/03/05 05:55:18;;;;;;;1.67;1.10;;;4.00;61.10;;;;;;4873395;29;20437;-62
2023/03/05 05:57:45;;;;;;;1.03;0.93;;;4.00;61.00;;;;;;4876379;29;20203;-63
2023/03/05 06:00:14;;;;;;;1.70;1.10;;;4.00;61.00;;;;;;4876182;29;20614;-63
2023/03/05 06:02:43;;;;;;;1.97;1.17;;;4.00;60.90;;;;;;4876228;29;20231;-63
2023/03/05 06:05:14;;;;;;;1.50;1.20;;;4.00;60.90;;;;;;4873719;29;20199;-63
2023/03/05 06:07:41;;;;;;;1.80;1.23;;;4.00;60.90;;;;;;4877158;29;20283;-62
2023/03/05 06:10:10;;;;;;;1.33;1.10;;;4.00;60.90;;;;;;4869305;29;20214;-62
2023/03/05 06:12:37;;;;;;;1.30;1.17;;;4.00;60.80;;;;;;4874302;29;20211;-62
2023/03/05 06:15:05;;;;;;;2.00;1.10;;;4.10;60.80;;;;;;4876157;29;20204;-63
2023/03/05 06:17:32;;;;;;;3.03;1.40;;;4.10;60.80;;;;;;4875057;29;20212;-62
2023/03/05 06:20:00;;;;;;;1.63;1.20;;;4.00;60.60;;;;;;4874773;29;20200;-63
2023/03/05 06:22:28;;;;;;;1.30;1.07;;;4.10;60.60;;;;;;4876478;29;20688;-63
2023/03/05 06:24:55;;;;;;;2.77;1.33;;;4.10;60.40;;;;;;4875948;29;20210;-62
2023/03/05 06:27:23;;;;;;;2.47;1.20;;;4.20;60.30;;;;;;4874782;29;20606;-62
2023/03/05 06:29:53;;;;;;;4.13;1.57;;;4.20;60.10;;;;;;4876330;29;20582;-62
2023/03/05 06:32:20;;;;;;;3.00;1.40;;;4.30;60.00;;;;;;4875987;29;20200;-62
2023/03/05 06:34:49;;;;;;;1.77;1.27;;;4.30;59.70;;;;;;4875259;29;20227;-62
2023/03/05 06:37:16;;;;;;;1.67;1.20;;;4.30;59.60;;;;;;4875978;29;20203;-61
2023/03/05 06:39:45;;;;;;;1.70;1.33;;;4.30;59.40;;;;;;4878421;29;20708;-63
2023/03/05 06:42:12;;;;;;;1.13;1.00;;;4.30;59.20;;;;;;4874252;29;20311;-62
2023/03/05 06:44:40;;;;;;;2.00;1.20;;;4.40;59.10;;;;;;4873978;29;20211;-61
2023/03/05 06:47:08;;;;;;;1.23;1.03;;;4.40;58.80;;;;;;4875623;29;20208;-62
2023/03/05 06:49:35;;;;;;;3.87;1.53;;;4.40;58.60;;;;;;4877939;29;20243;-63
2023/03/05 06:52:02;;;;;;;1.83;1.10;;;4.40;58.00;;;;;;4859469;29;20223;-63
2023/03/05 06:54:29;;;;;;;2.60;1.30;;;4.40;57.80;;;;;;4879450;29;20212;-62
2023/03/05 06:56:58;;;;;;;1.77;1.20;;;4.40;57.80;;;;;;4875456;29;20699;-63
2023/03/05 06:59:25;;;;;;;3.40;1.43;;;4.50;57.70;;;;;;4881122;29;20206;-63
2023/03/05 07:01:52;;;;;;;2.40;1.30;;;4.50;57.70;;;;;;4873500;29;20215;-62
2023/03/05 07:04:19;;;;;;;2.40;1.67;;;4.50;57.20;;;;;;4875467;29;20220;-63
2023/03/05 07:06:46;;;;;;;4.53;2.00;;;4.50;56.60;;;;;;4859140;29;20219;-63
2023/03/05 07:09:15;;;;;;;2.17;1.40;;;4.50;56.20;;;;;;4875650;29;20560;-63
2023/03/05 07:11:42;;;;;;;1.40;1.17;;;4.50;56.10;;;;;;4867166;29;20651;-63
2023/03/05 07:14:11;;;;;;;1.50;1.40;;;4.50;55.90;;;;;;4878259;29;20672;-63
2023/03/05 07:16:38;;;;;;;4.40;1.90;;;4.50;55.60;;;;;;4876196;29;20211;-62
2023/03/05 07:19:06;;;;;;;5.73;1.90;;;4.60;55.60;;;;;;4876066;29;20203;-63
2023/03/05 07:21:35;;;;;;;3.53;1.70;;;4.60;54.80;;;;;;4858926;29;20600;-63
2023/03/05 07:24:04;;;;;;;1.83;1.50;;;4.70;54.50;;;;;;4875461;29;20204;-62
2023/03/05 07:26:33;;;;;;;3.43;1.90;;;4.70;54.80;;;;;;4874395;29;20629;-63
2023/03/05 07:29:00;;;;;;;2.97;1.90;;;4.80;54.30;;;;;;4875097;29;20260;-62
2023/03/05 07:31:30;;;;;;;3.83;1.73;;;4.80;53.90;;;;;;4876913;29;20203;-63
2023/03/05 07:33:59;;;;;;;3.33;2.00;;;4.90;53.90;;;;;;4871827;29;20610;-62
2023/03/05 07:36:26;;;;;;;2.57;1.40;;;4.90;53.70;;;;;;4875986;29;20282;-62
2023/03/05 07:38:54;;;;;;;3.23;1.77;;;5.10;53.10;;;;;;4874678;29;20235;-63
2023/03/05 07:41:22;;;;;;;1.93;1.50;;;5.20;52.70;;;;;;4874455;29;20200;-62
2023/03/05 07:43:51;;;;;;;3.77;1.60;;;5.30;52.60;;;;;;4875994;29;20204;-63
2023/03/05 07:46:23;;;;;;;2.63;1.47;;;5.20;52.30;;;;;;4871689;29;20207;-62
2023/03/05 07:48:53;;;;;;;1.70;1.40;;;5.40;52.90;;;;;;4872905;29;20223;-63
2023/03/05 07:51:22;;;;;;;2.30;1.50;;;5.60;52.30;;;;;;4877070;29;20208;-62
2023/03/05 07:53:50;;;;;;;1.17;1.07;;;5.70;51.80;;;;;;4878920;29;20223;-62
2023/03/05 07:56:22;;;;;;;1.53;1.27;;;5.80;51.30;;;;;;4879170;29;20199;-63
2023/03/05 07:58:49;;;;;;;2.40;1.50;;;5.90;51.40;;;;;;4881471;29;20223;-62
2023/03/05 08:01:19;;;;;;;1.40;1.30;;;6.20;50.80;;;;;;4878416;29;20238;-62
2023/03/05 08:03:46;;;;;;;3.83;1.50;;;6.60;50.80;;;;;;4876874;29;20285;-62
2023/03/05 08:06:14;;;;;;;3.10;1.30;;;7.00;50.10;;;;;;4879212;29;20209;-62
2023/03/05 08:08:42;;;;;;;3.73;1.30;;;7.40;49.50;;;;;;4879529;29;20227;-64
2023/03/05 08:11:13;;;;;;;1.37;1.17;;;7.80;47.90;;;;;;4877555;29;20202;-63
2023/03/05 08:13:41;;;;;;;1.30;1.20;;;8.10;46.80;;;;;;4878276;29;20229;-63
2023/03/05 08:16:11;;;;;;;2.33;1.53;;;8.40;45.80;;;;;;4878638;29;20209;-61
2023/03/05 08:18:38;;;;;;;2.43;1.40;;;8.50;44.80;;;;;;4878881;29;20229;-62
2023/03/05 08:21:06;;;;;;;1.40;1.30;;;8.70;44.90;;;;;;4862084;29;20228;-62
2023/03/05 08:23:34;;;;;;;1.50;1.20;;;8.80;45.40;;;;;;4878112;29;20230;-63
2023/03/05 08:26:01;;;;;;;2.17;1.37;;;9.20;45.30;;;;;;4880272;29;20279;-61
2023/03/05 08:28:29;;;;;;;1.33;1.10;;;9.50;44.40;;;;;;4878218;29;20212;-62
2023/03/05 08:30:56;;;;;;;1.20;1.00;;;9.70;43.20;;;;;;4881142;29;20237;-62
2023/03/05 08:33:23;;;;;;;1.80;1.13;;;9.90;43.50;;;;;;4873567;29;20211;-62
2023/03/05 08:35:50;;;;;;;1.70;0.97;;;10.30;42.60;;;;;;4882102;29;20224;-63
2023/03/05 08:38:17;;;;;;;1.80;0.90;;;10.50;42.20;;;;;;4866310;29;20531;-62
2023/03/05 08:40:46;;;;;;;1.47;1.07;;;10.80;41.30;;;;;;4876539;29;20205;-62
2023/03/05 08:43:13;;;;;;;1.90;1.17;;;11.00;39.80;;;;;;4878331;29;20221;-62
2023/03/05 08:45:41;;;;;;;1.20;1.10;;;11.10;39.60;;;;;;4878866;29;20204;-62
2023/03/05 08:48:08;;;;;;;2.03;1.00;;;11.10;39.00;;;;;;4876724;29;20336;-64
2023/03/05 08:50:36;;;;;;;1.17;1.07;;;11.20;39.10;;;;;;4875354;29;20236;-62
2023/03/05 08:53:03;;;;;;;1.07;0.70;;;11.20;38.80;;;;;;4876289;29;20211;-62
2023/03/05 08:55:30;;;;;;;1.00;1.00;;;11.20;38.50;;;;;;4875708;29;20203;-62
2023/03/05 08:57:59;;;;;;;1.13;1.00;;;11.20;39.00;;;;;;4877569;29;20230;-61
2023/03/05 09:00:26;;;;;;;0.60;0.60;;;11.20;39.40;;;;;;4877288;29;20211;-61
2023/03/05 09:02:53;;;;;;;1.33;0.90;;;11.20;39.20;;;;;;4878032;29;20706;-62
2023/03/05 09:05:20;;;;;;;1.20;1.10;;;11.20;38.30;;;;;;4878029;29;20609;-62
2023/03/05 09:07:47;;;;;;;3.30;1.33;;;11.20;37.70;;;;;;4878936;29;20206;-62
2023/03/05 09:10:17;;;;;;;0.80;0.80;;;11.30;38.40;;;;;;4876607;29;20666;-63
2023/03/05 09:12:44;;;;;;;1.60;1.20;;;11.40;38.30;;;;;;4860915;29;20220;-63
2023/03/05 09:15:13;;;;;;;2.20;1.20;;;11.20;37.70;;;;;;4877632;29;20242;-63
2023/03/05 09:17:41;;;;;;;3.90;1.27;;;11.00;38.50;;;;;;4877439;29;20205;-63
2023/03/05 09:20:11;;;;;;;2.53;1.07;;;10.70;39.00;;;;;;4878148;29;20202;-62
2023/03/05 09:22:39;;;;;;;1.90;1.00;;;10.30;38.10;;;;;;4878501;29;20215;-63
2023/03/05 09:25:08;;;;;;;1.37;1.00;;;9.90;38.90;;;;;;4874538;29;20592;-63
2023/03/05 09:27:35;;;;;;;2.70;0.90;;;9.70;39.20;;;;;;4877765;29;20209;-62
2023/03/05 09:30:04;;;;;;;0.70;0.70;;;9.50;39.00;;;;;;4877618;29;20200;-63
2023/03/05 09:32:33;;;;;;;1.33;0.87;;;9.30;38.80;;;;;;4872984;29;20249;-61
2023/03/05 09:35:00;;;;;;;1.17;1.00;;;9.20;38.90;;;;;;4878404;29;20743;-63
2023/03/05 09:37:28;;;;;;;1.53;0.77;;;9.20;39.00;;;;;;4868504;29;20209;-63
2023/03/05 09:39:55;;;;;;;0.97;0.77;;;9.30;38.00;;;;;;4877039;29;20670;-63
2023/03/05 09:42:44;;;;;;;4.87;0.67;;;9.40;38.00;;;;;;4853181;29;20405;-63
2023/03/05 09:45:21;;;;;;;4.20;0.87;;;9.50;37.30;;;;;;4875690;29;20200;-62
2023/03/05 09:48:03;;;;;;;0.57;0.57;;;9.60;36.90;;;;;;4877176;29;20194;-62
2023/03/05 09:50:43;;;;;;;0.60;0.60;;;9.50;36.40;;;;;;4874797;29;20605;-63
2023/03/05 09:53:23;;;;;;;3.03;0.83;;;9.70;36.80;;;;;;4877264;29;20286;-62
2023/03/05 09:55:52;;;;;;;0.93;0.60;;;10.00;36.10;;;;;;4871984;29;20320;-63
2023/03/05 09:58:30;;;;;;;0.60;0.60;;;10.40;36.10;;;;;;4875854;29;20208;-63
2023/03/05 10:01:01;;;;;;;2.40;0.60;;;10.90;35.90;;;;;;4879567;29;20199;-63
2023/03/05 10:03:35;;;;;;;2.40;0.87;;;11.60;35.90;;;;;;4873085;29;20594;-61
2023/03/05 10:06:16;;;;;;;0.60;0.60;;;12.10;36.10;;;;;;4878261;29;20563;-62
2023/03/05 10:08:53;;;;;;;1.23;0.80;;;12.70;36.00;;;;;;4870693;29;20694;-61
2023/03/05 10:11:36;;;;;;;1.30;0.80;;;13.40;35.10;;;;;;4870777;29;20203;-61
2023/03/05 10:14:04;;;;;;;2.13;0.80;;;14.00;34.20;;;;;;4873196;29;20191;-62
2023/03/05 10:16:51;;;;;;;1.10;0.90;;;14.80;33.60;;;;;;4877007;29;20695;-61
2023/03/05 10:19:37;;;;;;;1.60;1.00;;;15.60;33.20;;;;;;4852694;29;20288;-62
2023/03/05 10:22:17;;;;;;;1.27;0.80;;;16.90;31.50;;;;;;4880195;29;20195;-61
2023/03/05 10:24:57;;;;;;;0.93;0.80;;;18.20;30.30;;;;;;4857754;29;20692;-61
2023/03/05 10:27:37;;;;;;;1.60;0.90;;;19.60;29.80;;;;;;4874844;29;20557;-62
2023/03/05 10:30:18;;;;;;;0.80;0.63;;;19.40;28.70;;;;;;4874255;29;20217;-61
2023/03/05 10:32:54;;;;;;;0.60;0.60;;;18.30;29.20;;;;;;4877535;29;20229;-61
2023/03/05 10:35:43;;;;;;;0.80;0.80;;;17.30;29.60;;;;;;4883234;29;20201;-61
2023/03/05 10:38:34;;;;;;;0.80;0.80;;;16.30;29.30;;;;;;4875429;29;20574;-62
2023/03/05 10:41:07;;;;;;;1.97;0.80;;;15.50;29.70;;;;;;4871641;29;20281;-61
2023/03/05 10:43:40;;;;;;;0.87;0.60;;;14.70;29.20;;;;;;4874820;29;20304;-62
2023/03/05 10:46:15;;;;;;;2.43;0.70;;;14.30;29.70;;;;;;4879501;29;20209;-61
2023/03/05 10:48:59;;;;;;;;;;;;;;;;;;;;;
2023/03/05 10:51:48;;;;;;;1.03;0.80;;;13.70;30.00;;;;;;4875656;29;20204;-70
2023/03/05 10:54:32;;;;;;;2.00;1.03;;;13.50;30.10;;;;;;4879586;29;20197;-61
2023/03/05 10:57:22;;;;;;;1.03;0.90;;;13.40;30.50;;;;;;4864265;29;20635;-61
2023/03/05 11:00:03;;;;;;;1.07;0.77;;;13.10;30.20;;;;;;4876119;29;20200;-61
2023/03/05 11:02:59;;;;;;;0.73;0.73;;;12.30;30.20;;;;;;4873917;29;20310;-62
2023/03/05 11:05:46;;;;;;;0.80;0.70;;;12.40;31.00;;;;;;4862459;29;20612;-61
2023/03/05 11:08:37;;;;;;;2.20;0.73;;;13.10;31.10;;;;;;4883325;29;20216;-62
2023/03/05 11:11:25;;;;;;;1.30;0.87;;;14.20;29.90;;;;;;4884065;29;20278;-61
2023/03/05 13:32:36;;;;;;;1.33;1.20;;;22.80;24.90;;;;;;5048895;27;1996189;-62
2023/03/05 13:35:03;;;;;;;3.37;1.30;;;21.70;26.30;;;;;;5099322;28;20200;-63
2023/03/05 13:37:33;;;;;;;1.07;1.00;;;20.70;26.50;;;;;;5081846;28;20280;-64
2023/03/05 13:40:06;;;;;;;1.30;0.90;;;19.50;26.80;;;;;;5082544;28;20190;-63
2023/03/05 13:42:37;;;;;;;1.37;0.90;;;18.30;26.80;;;;;;5097390;28;20188;-63
2023/03/05 13:45:07;;;;;;;0.80;0.80;;;17.10;27.20;;;;;;5092188;28;20211;-64
2023/03/05 13:47:36;;;;;;;1.30;1.10;;;16.00;27.40;;;;;;5082350;28;20199;-61
2023/03/05 13:50:07;;;;;;;1.57;0.80;;;15.30;28.00;;;;;;5100315;28;20270;-62
2023/03/05 13:52:36;;;;;;;1.27;0.77;;;14.70;28.30;;;;;;5091647;28;20534;-63
2023/03/05 13:55:12;;;;;;;1.20;0.87;;;14.20;28.30;;;;;;5099158;28;20198;-64
2023/03/05 13:57:41;;;;;;;0.87;0.87;;;13.80;28.60;;;;;;5099036;28;20248;-63
2023/03/05 14:00:26;;;;;;;0.80;0.80;;;13.30;28.70;;;;;;5100405;28;20194;-63
2023/03/05 14:02:57;;;;;;;1.00;0.90;;;13.10;29.10;;;;;;5090697;28;20199;-63
2023/03/05 14:05:24;;;;;;;0.70;0.70;;;12.90;29.10;;;;;;5092158;28;20675;-63
2023/03/05 14:07:52;;;;;;;1.07;0.80;;;12.80;28.90;;;;;;5098201;28;20196;-64
2023/03/05 14:10:30;;;;;;;1.23;0.80;;;12.60;28.90;;;;;;5098241;28;20616;-63
2023/03/05 14:12:58;;;;;;;0.80;0.80;;;12.40;28.50;;;;;;5103826;28;20191;-65
2023/03/05 14:15:27;;;;;;;1.03;0.80;;;12.20;28.70;;;;;;5100162;28;20204;-64
2023/03/05 14:18:16;;;;;;;0.80;0.80;;;12.10;29.00;;;;;;5096818;28;20671;-64
2023/03/05 14:21:00;;;;;;;1.37;0.90;;;12.00;29.10;;;;;;5095603;28;20188;-62
2023/03/05 14:23:35;;;;;;;1.10;1.00;;;11.80;29.10;;;;;;5097710;28;20204;-62
2023/03/05 14:26:22;;;;;;;1.17;1.00;;;11.60;28.60;;;;;;5087918;28;20222;-61
2023/03/05 14:28:54;;;;;;;1.60;1.20;;;11.40;29.10;;;;;;5101033;28;20184;-62
2023/03/05 14:31:22;;;;;;;1.17;0.87;;;11.40;29.00;;;;;;5094776;28;20589;-63
2023/03/05 14:33:52;;;;;;;1.47;1.20;;;11.20;28.80;;;;;;5098879;28;20586;-63
2023/03/05 14:36:25;;;;;;;0.80;0.80;;;11.10;28.80;;;;;;5093267;28;20388;-62
2023/03/05 14:38:54;;;;;;;0.60;0.60;;;10.90;28.60;;;;;;5080434;28;20205;-61
2023/03/05 14:41:34;;;;;;;1.07;0.97;;;10.80;28.80;;;;;;5093861;28;20202;-63
2023/03/05 14:44:03;;;;;;;1.03;0.70;;;10.60;28.90;;;;;;5060604;28;20394;-62
2023/03/05 14:46:30;;;;;;;2.33;1.10;;;10.50;29.20;;;;;;5084582;28;20225;-63
2023/03/05 14:49:07;;;;;;;1.40;1.00;;;10.40;29.30;;;;;;5059954;28;20215;-63
2023/03/05 14:51:40;;;;;;;2.13;1.00;;;10.30;29.20;;;;;;5086152;28;20380;-63
2023/03/05 14:54:19;;;;;;;1.17;0.90;;;10.30;28.90;;;;;;5074813;28;20777;-63
2023/03/05 14:56:48;;;;;;;1.30;0.83;;;10.20;28.90;;;;;;5077726;28;20192;-62
2023/03/05 14:59:20;;;;;;;1.40;1.00;;;10.10;29.00;;;;;;5084940;28;20255;-63
2023/03/05 15:01:49;;;;;;;1.47;0.73;;;9.90;29.70;;;;;;5081992;28;20385;-63
2023/03/05 15:04:18;;;;;;;1.03;0.70;;;9.90;30.00;;;;;;5082331;28;20188;-62
2023/03/05 15:06:49;;;;;;;0.60;0.60;;;9.70;29.90;;;;;;5080582;28;20187;-62
2023/03/05 15:09:18;;;;;;;1.70;1.00;;;9.70;30.00;;;;;;5083377;28;20227;-61
2023/03/05 15:11:46;;;;;;;2.63;0.80;;;9.70;30.20;;;;;;5081168;28;20573;-63
2023/03/05 15:14:13;;;;;;;0.67;0.67;;;9.70;30.20;;;;;;5080588;28;20192;-62
2023/03/05 15:16:43;;;;;;;0.83;0.80;;;9.60;30.40;;;;;;5082392;28;20245;-62
2023/03/05 15:19:12;;;;;;;1.30;0.80;;;9.00;30.00;;;;;;5078527;28;20205;-62
2023/03/05 15:21:41;;;;;;;0.70;0.60;;;9.70;30.70;;;;;;5090837;28;20207;-62
2023/03/05 15:24:08;;;;;;;0.53;0.53;;;9.70;31.00;;;;;;5091187;28;20204;-62
2023/03/05 15:26:36;;;;;;;0.90;0.90;;;9.60;31.10;;;;;;5090363;28;20579;-62
2023/03/05 15:29:03;;;;;;;0.63;0.63;;;9.60;31.20;;;;;;5091028;28;20261;-61